Time;durP1;ratioP1;P1;durP2;ratioP2;P2;SDS_P1;SDS_P2;PMS_P1;PMS_P2;Temp;Humidity;BMP_temperature;BMP_pressure;BME280_temperature;BME280_humidity;BME280_pressure;Samples;Min_cycle;Max_cycle;Signal;HPM_P1;HPM_P2
2022/05/09 00:00:17;;;;;;;4.57;2.08;;;20.70;99.90;;;;;;4213048;28;20218;-82
2022/05/09 00:02:19;;;;;;;2.88;1.65;;;20.70;99.90;;;;;;4212593;28;20268;-83
2022/05/09 00:04:23;;;;;;;3.58;1.80;;;20.60;99.90;;;;;;4212128;28;20227;-83
2022/05/09 00:06:25;;;;;;;4.50;1.80;;;20.60;99.90;;;;;;4212277;28;20291;-83
2022/05/09 00:08:28;;;;;;;5.15;2.10;;;20.70;99.90;;;;;;4212553;28;20732;-83
2022/05/09 00:10:30;;;;;;;4.22;1.73;;;20.60;99.90;;;;;;4212734;28;20283;-83
2022/05/09 00:12:33;;;;;;;4.38;2.03;;;20.60;99.90;;;;;;4212323;28;20279;-83
2022/05/09 00:14:35;;;;;;;3.63;1.90;;;20.60;99.90;;;;;;4210704;28;20222;-83
2022/05/09 00:16:38;;;;;;;2.90;1.80;;;20.60;99.90;;;;;;4212621;28;20291;-83
2022/05/09 00:18:40;;;;;;;3.05;1.83;;;20.60;99.90;;;;;;4212889;28;20578;-83
2022/05/09 00:20:44;;;;;;;6.53;2.13;;;20.60;99.90;;;;;;4212989;28;20255;-83
2022/05/09 00:22:50;;;;;;;2.92;1.60;;;20.60;99.90;;;;;;4211863;28;20210;-82
2022/05/09 00:24:52;;;;;;;3.63;1.85;;;20.60;99.90;;;;;;4212001;28;20222;-83
2022/05/09 00:26:55;;;;;;;3.80;1.83;;;20.60;99.90;;;;;;4213005;28;20202;-83
2022/05/09 00:28:58;;;;;;;4.88;1.98;;;20.60;99.90;;;;;;4212283;28;20214;-83
2022/05/09 00:31:00;;;;;;;3.47;1.77;;;20.60;99.90;;;;;;4212485;28;20264;-83
2022/05/09 00:33:02;;;;;;;3.25;1.83;;;20.60;99.90;;;;;;4212442;28;20272;-83
2022/05/09 00:35:07;;;;;;;3.40;1.67;;;20.60;99.90;;;;;;4212271;28;20633;-83
2022/05/09 00:37:10;;;;;;;2.90;1.65;;;20.60;99.90;;;;;;4212202;28;20236;-83
2022/05/09 00:39:14;;;;;;;3.30;1.92;;;20.60;99.90;;;;;;4212363;28;20226;-83
2022/05/09 00:43:35;;;;;;;2.80;1.50;;;20.60;99.90;;;;;;4209307;28;20211;-83
2022/05/09 00:45:37;;;;;;;4.45;1.98;;;20.60;99.90;;;;;;4211370;28;20287;-82
2022/05/09 00:47:40;;;;;;;4.40;2.00;;;20.50;99.90;;;;;;4212147;28;20206;-83
2022/05/09 00:49:47;;;;;;;4.43;2.10;;;20.60;99.90;;;;;;4211688;28;20218;-83
2022/05/09 00:51:55;;;;;;;3.67;1.95;;;20.50;99.90;;;;;;4211441;28;20259;-83
2022/05/09 00:54:02;;;;;;;4.53;2.00;;;20.50;99.90;;;;;;4210460;28;20243;-83
2022/05/09 00:56:07;;;;;;;3.60;1.83;;;20.50;99.90;;;;;;4211447;28;20264;-83
2022/05/09 00:58:14;;;;;;;2.35;1.63;;;20.50;99.90;;;;;;4211967;28;20698;-83
2022/05/09 01:00:18;;;;;;;3.92;1.80;;;20.50;99.90;;;;;;4210885;28;20674;-82
2022/05/09 01:02:21;;;;;;;2.97;1.92;;;20.50;99.90;;;;;;4210393;28;20287;-83
2022/05/09 01:04:27;;;;;;;3.78;1.85;;;20.50;99.90;;;;;;4211384;28;20264;-83
2022/05/09 01:06:29;;;;;;;3.30;2.03;;;20.50;99.90;;;;;;4211101;28;20215;-83
2022/05/09 01:08:32;;;;;;;5.03;1.98;;;20.50;99.90;;;;;;4211789;28;20265;-83
2022/05/09 01:10:39;;;;;;;3.60;1.90;;;20.50;99.90;;;;;;4211855;28;20226;-83
2022/05/09 01:12:43;;;;;;;2.55;1.80;;;20.50;99.90;;;;;;4207217;28;20268;-83
2022/05/09 01:14:45;;;;;;;2.75;1.55;;;20.40;99.90;;;;;;4210519;28;20218;-83
2022/05/09 01:16:48;;;;;;;2.97;2.00;;;20.50;99.90;;;;;;4211302;28;20214;-83
2022/05/09 01:18:52;;;;;;;3.75;1.90;;;20.40;99.90;;;;;;4211346;28;20279;-83
2022/05/09 01:20:54;;;;;;;3.85;2.22;;;20.40;99.90;;;;;;4210496;28;20613;-83
2022/05/09 01:23:00;;;;;;;3.63;1.73;;;20.50;99.90;;;;;;4211185;28;20623;-83
2022/05/09 01:25:06;;;;;;;4.93;1.90;;;20.40;99.90;;;;;;4211136;28;20226;-83
2022/05/09 01:27:08;;;;;;;4.05;1.95;;;20.40;99.90;;;;;;4210879;28;20286;-83
2022/05/09 01:29:25;;;;;;;3.75;2.00;;;20.40;99.90;;;;;;4211326;28;20210;-82
2022/05/09 01:31:27;;;;;;;3.97;1.70;;;20.40;99.90;;;;;;4211114;28;20218;-83
2022/05/09 01:33:36;;;;;;;3.03;1.80;;;20.40;99.90;;;;;;4210865;28;20218;-83
2022/05/09 01:35:43;;;;;;;3.00;1.70;;;20.40;99.90;;;;;;4210246;28;21039;-83
2022/05/09 01:37:49;;;;;;;4.03;2.13;;;20.40;99.90;;;;;;4211272;28;20211;-83
2022/05/09 01:39:52;;;;;;;3.88;1.95;;;20.40;99.90;;;;;;4211569;28;20255;-83
2022/05/09 01:41:55;;;;;;;3.53;1.95;;;20.40;99.90;;;;;;4211022;28;20218;-83
2022/05/09 01:43:57;;;;;;;3.13;1.50;;;20.40;99.90;;;;;;4211395;28;20263;-83
2022/05/09 01:46:00;;;;;;;4.28;1.80;;;20.40;99.90;;;;;;4211522;28;20203;-83
2022/05/09 01:50:23;;;;;;;3.80;1.75;;;20.30;99.90;;;;;;4211638;28;20206;-83
2022/05/09 01:52:26;;;;;;;3.05;1.73;;;20.30;99.90;;;;;;4211232;28;20222;-83
2022/05/09 01:54:29;;;;;;;4.47;1.95;;;20.30;99.90;;;;;;4210713;28;20271;-83
2022/05/09 01:56:36;;;;;;;4.32;2.17;;;20.30;99.90;;;;;;4209455;28;20287;-83
2022/05/09 01:58:38;;;;;;;2.67;1.90;;;20.30;99.90;;;;;;4211018;28;20748;-83
2022/05/09 02:00:43;;;;;;;3.83;1.90;;;20.30;99.90;;;;;;4210740;28;20753;-83
2022/05/09 02:02:45;;;;;;;3.60;1.90;;;20.30;99.90;;;;;;4211139;28;20206;-83
2022/05/09 02:04:47;;;;;;;2.65;1.77;;;20.30;99.90;;;;;;4210471;28;20210;-83
2022/05/09 02:06:50;;;;;;;3.03;1.88;;;20.30;99.90;;;;;;4210661;28;20271;-83
2022/05/09 02:08:53;;;;;;;4.03;1.67;;;20.30;99.90;;;;;;4211170;28;20263;-83
2022/05/09 02:10:55;;;;;;;4.72;2.10;;;20.30;99.90;;;;;;4211640;28;20210;-83
2022/05/09 02:12:59;;;;;;;4.18;2.10;;;20.30;99.90;;;;;;4214154;28;20260;-83
2022/05/09 02:15:01;;;;;;;5.03;2.05;;;20.30;99.90;;;;;;4214783;28;20263;-83
2022/05/09 02:17:04;;;;;;;2.60;1.80;;;20.30;99.90;;;;;;4212615;28;20822;-83
2022/05/09 02:19:07;;;;;;;4.38;2.08;;;20.30;99.90;;;;;;4214684;28;20276;-83
2022/05/09 02:21:10;;;;;;;3.45;1.75;;;20.30;99.90;;;;;;4213933;28;20840;-83
2022/05/09 02:23:13;;;;;;;3.40;1.77;;;20.30;99.90;;;;;;4213765;28;20696;-82
2022/05/09 02:25:29;;;;;;;4.75;2.08;;;20.30;99.90;;;;;;4214360;28;20223;-83
2022/05/09 02:27:32;;;;;;;3.13;1.70;;;20.30;99.90;;;;;;4213375;28;20222;-82
2022/05/09 02:29:37;;;;;;;2.65;1.77;;;20.30;99.90;;;;;;4211941;28;20568;-82
2022/05/09 02:31:40;;;;;;;4.10;1.83;;;20.30;99.90;;;;;;4213894;28;20230;-83
2022/05/09 02:33:42;;;;;;;5.30;2.00;;;20.30;99.90;;;;;;4213984;28;20234;-83
2022/05/09 02:35:45;;;;;;;2.67;1.85;;;20.30;99.90;;;;;;4214142;28;20236;-83
2022/05/09 02:37:48;;;;;;;3.75;1.88;;;20.30;99.90;;;;;;4213809;28;20234;-83
2022/05/09 02:39:52;;;;;;;3.85;1.80;;;20.30;99.90;;;;;;4213457;28;20857;-82
2022/05/09 02:41:55;;;;;;;3.70;1.98;;;20.30;99.90;;;;;;4211780;28;20222;-77
2022/05/09 02:43:58;;;;;;;4.40;1.80;;;20.30;99.90;;;;;;4211331;28;20263;-77
2022/05/09 02:46:04;;;;;;;3.88;1.90;;;20.30;99.90;;;;;;4212261;28;20214;-77
2022/05/09 02:48:07;;;;;;;3.45;1.70;;;20.30;99.90;;;;;;4210965;28;20226;-77
2022/05/09 02:50:11;;;;;;;2.78;1.70;;;20.30;99.90;;;;;;4211992;28;20218;-76
2022/05/09 02:52:13;;;;;;;3.45;1.65;;;20.30;99.90;;;;;;4212096;28;20210;-76
2022/05/09 02:54:16;;;;;;;3.17;2.00;;;20.30;99.90;;;;;;4212011;28;20230;-77
2022/05/09 02:56:18;;;;;;;3.50;1.80;;;20.30;99.90;;;;;;4212491;28;21551;-76
2022/05/09 02:58:20;;;;;;;3.13;1.80;;;20.30;99.90;;;;;;4211751;28;20230;-76
2022/05/09 03:00:25;;;;;;;4.45;1.98;;;20.30;99.90;;;;;;4208122;28;20277;-77
2022/05/09 03:02:29;;;;;;;5.50;2.08;;;20.30;99.90;;;;;;4209324;28;20271;-77
2022/05/09 03:04:39;;;;;;;4.28;1.98;;;20.30;99.90;;;;;;4211562;28;20218;-76
2022/05/09 03:06:42;;;;;;;2.67;1.70;;;20.30;99.90;;;;;;4210774;28;20284;-76
2022/05/09 03:08:44;;;;;;;4.07;1.90;;;20.20;99.90;;;;;;4209994;28;20667;-76
2022/05/09 03:10:47;;;;;;;3.45;1.80;;;20.20;99.90;;;;;;4211195;28;20561;-76
2022/05/09 03:12:49;;;;;;;3.70;2.10;;;20.30;99.90;;;;;;4210428;28;20322;-77
2022/05/09 03:14:52;;;;;;;2.55;1.60;;;20.20;99.90;;;;;;4209894;28;20551;-76
2022/05/09 03:16:54;;;;;;;3.25;2.05;;;20.20;99.90;;;;;;4211343;28;20671;-77
2022/05/09 03:18:58;;;;;;;3.92;1.90;;;20.20;99.90;;;;;;4210127;28;20242;-76
2022/05/09 03:21:01;;;;;;;3.17;2.00;;;20.20;99.90;;;;;;4210440;28;20271;-76
2022/05/09 03:23:04;;;;;;;3.45;2.00;;;20.20;99.90;;;;;;4210057;28;20215;-76
2022/05/09 03:25:07;;;;;;;3.63;1.70;;;20.30;99.90;;;;;;4210171;28;20218;-76
2022/05/09 03:27:12;;;;;;;2.75;1.60;;;20.20;99.90;;;;;;4209922;28;20244;-76
2022/05/09 03:29:15;;;;;;;3.40;1.60;;;20.30;99.90;;;;;;4210238;28;20634;-76
2022/05/09 03:31:17;;;;;;;4.85;2.38;;;20.20;99.90;;;;;;4210007;28;20267;-76
2022/05/09 03:33:22;;;;;;;3.85;1.83;;;20.30;99.90;;;;;;4210969;28;20629;-76
2022/05/09 03:35:25;;;;;;;3.58;2.13;;;20.20;99.90;;;;;;4210631;28;20226;-76
2022/05/09 03:37:29;;;;;;;5.45;2.13;;;20.20;99.90;;;;;;4210797;28;20639;-76
2022/05/09 03:39:31;;;;;;;4.15;1.98;;;20.20;99.90;;;;;;4210451;28;20291;-76
2022/05/09 03:41:34;;;;;;;4.55;1.70;;;20.20;99.90;;;;;;4210228;28;20622;-76
2022/05/09 03:43:36;;;;;;;4.15;1.95;;;20.20;99.90;;;;;;4210084;28;20215;-76
2022/05/09 03:45:41;;;;;;;4.05;1.88;;;20.20;99.90;;;;;;4209989;28;20218;-76
2022/05/09 03:47:43;;;;;;;4.80;2.25;;;20.20;99.90;;;;;;4210126;28;20219;-76
2022/05/09 03:49:46;;;;;;;5.20;2.10;;;20.20;99.90;;;;;;4209945;28;20237;-77
2022/05/09 03:51:50;;;;;;;4.70;2.05;;;20.20;99.90;;;;;;4210257;28;20215;-76
2022/05/09 03:53:52;;;;;;;3.80;1.88;;;20.20;99.90;;;;;;4210550;28;20218;-76
2022/05/09 03:55:55;;;;;;;2.85;2.03;;;20.20;99.90;;;;;;4209575;28;20736;-77
2022/05/09 03:57:58;;;;;;;3.67;1.98;;;20.20;99.90;;;;;;4209735;28;20298;-76
2022/05/09 04:00:05;;;;;;;4.72;1.75;;;20.20;99.90;;;;;;4208934;28;20242;-76
2022/05/09 04:02:07;;;;;;;2.58;1.83;;;20.20;99.90;;;;;;4208624;28;20218;-76
2022/05/09 04:04:10;;;;;;;4.70;2.10;;;20.20;99.90;;;;;;4209783;28;20219;-76
2022/05/09 04:06:12;;;;;;;3.60;1.90;;;20.20;99.90;;;;;;4168943;28;1178956;-76
2022/05/09 04:08:20;;;;;;;3.20;1.70;;;20.20;99.90;;;;;;4210292;28;20574;-76
2022/05/09 04:10:25;;;;;;;4.90;1.95;;;20.20;99.90;;;;;;4211011;28;20218;-76
2022/05/09 04:12:27;;;;;;;3.58;1.77;;;20.20;99.90;;;;;;4210563;28;20230;-76
2022/05/09 04:16:52;;;;;;;6.60;2.15;;;20.20;99.90;;;;;;4210804;28;20573;-76
2022/05/09 04:18:59;;;;;;;5.85;2.42;;;20.20;99.90;;;;;;4210368;28;20687;-76
2022/05/09 04:21:01;;;;;;;3.22;2.10;;;20.20;99.90;;;;;;4209854;28;20238;-76
2022/05/09 04:23:04;;;;;;;5.20;2.00;;;20.20;99.90;;;;;;4210518;28;20555;-76
2022/05/09 04:25:09;;;;;;;3.50;1.83;;;20.20;99.90;;;;;;4210642;28;20280;-76
2022/05/09 04:27:11;;;;;;;3.13;2.25;;;20.10;99.90;;;;;;4209697;28;20275;-76
2022/05/09 04:29:14;;;;;;;6.20;2.20;;;20.20;99.90;;;;;;4210786;28;20291;-76
2022/05/09 04:31:17;;;;;;;3.30;2.40;;;20.10;99.90;;;;;;4210194;28;20218;-77
2022/05/09 04:33:20;;;;;;;4.72;1.98;;;20.10;99.90;;;;;;4209630;28;20222;-77
2022/05/09 04:35:23;;;;;;;3.25;1.77;;;20.10;99.90;;;;;;4209539;28;20253;-76
2022/05/09 04:37:26;;;;;;;4.30;1.90;;;20.10;99.90;;;;;;4210528;28;20211;-76
2022/05/09 04:39:28;;;;;;;3.72;2.00;;;20.10;99.80;;;;;;4209296;28;20276;-77
2022/05/09 04:41:33;;;;;;;5.90;2.15;;;20.20;99.90;;;;;;4210767;28;20712;-77
2022/05/09 04:43:36;;;;;;;5.90;2.05;;;20.10;99.90;;;;;;4209988;28;20251;-76
2022/05/09 04:45:39;;;;;;;3.90;1.90;;;20.20;99.90;;;;;;4209953;28;20291;-76
2022/05/09 04:47:42;;;;;;;4.22;2.00;;;20.20;99.90;;;;;;4208378;28;20226;-76
2022/05/09 04:49:44;;;;;;;3.20;1.90;;;20.20;99.90;;;;;;4203202;28;20276;-76
2022/05/09 04:51:46;;;;;;;4.03;1.85;;;20.10;99.90;;;;;;4208960;28;20222;-76
2022/05/09 04:53:50;;;;;;;3.25;2.00;;;20.10;99.80;;;;;;4209928;28;20744;-76
2022/05/09 04:55:55;;;;;;;3.83;2.20;;;20.10;99.90;;;;;;4208527;28;20207;-76
2022/05/09 04:57:59;;;;;;;5.65;2.20;;;20.10;99.90;;;;;;4210388;28;20276;-76
2022/05/09 05:00:02;;;;;;;3.55;1.83;;;20.10;99.80;;;;;;4208973;28;20285;-76
2022/05/09 05:02:05;;;;;;;4.90;2.25;;;20.10;99.90;;;;;;4209440;28;20226;-76
2022/05/09 05:04:10;;;;;;;5.22;2.00;;;20.10;99.90;;;;;;4209661;28;20263;-76
2022/05/09 05:06:12;;;;;;;4.63;2.10;;;20.10;99.90;;;;;;4209315;28;20339;-76
2022/05/09 05:08:15;;;;;;;5.03;2.50;;;20.10;99.70;;;;;;4204596;28;20389;-76
2022/05/09 05:10:18;;;;;;;3.75;2.10;;;20.10;99.70;;;;;;4208729;28;20319;-76
2022/05/09 05:12:21;;;;;;;7.00;2.25;;;20.10;99.70;;;;;;4210167;28;20214;-76
2022/05/09 05:14:24;;;;;;;5.18;2.33;;;20.10;99.90;;;;;;4209735;28;20222;-76
2022/05/09 05:18:44;;;;;;;4.15;2.03;;;20.10;99.70;;;;;;4208294;28;20214;-76
2022/05/09 05:20:46;;;;;;;6.20;2.22;;;20.10;99.80;;;;;;4209054;28;20242;-76
2022/05/09 05:22:49;;;;;;;3.72;2.08;;;20.20;99.80;;;;;;4209826;28;20284;-76
2022/05/09 05:24:53;;;;;;;5.07;2.20;;;20.20;99.70;;;;;;4209838;28;20207;-76
2022/05/09 05:26:56;;;;;;;3.25;2.00;;;20.20;99.90;;;;;;4208721;28;20218;-76
2022/05/09 05:28:58;;;;;;;4.30;2.40;;;20.10;99.70;;;;;;4209854;28;20218;-76
2022/05/09 05:31:14;;;;;;;3.95;2.17;;;20.10;99.70;;;;;;4208794;28;20596;-76
2022/05/09 05:33:17;;;;;;;3.47;1.90;;;20.10;99.90;;;;;;4209032;28;20214;-76
2022/05/09 05:35:21;;;;;;;3.47;2.28;;;20.10;99.90;;;;;;4202722;28;20295;-76
2022/05/09 05:37:25;;;;;;;4.72;2.22;;;20.10;99.70;;;;;;4209177;28;20226;-76
2022/05/09 05:39:27;;;;;;;5.70;2.33;;;20.10;99.70;;;;;;4209812;28;20219;-76
2022/05/09 05:41:31;;;;;;;3.63;2.00;;;20.10;99.70;;;;;;4209009;28;20645;-76
2022/05/09 05:43:33;;;;;;;5.15;2.45;;;20.10;99.70;;;;;;4208184;28;20264;-76
2022/05/09 05:45:36;;;;;;;4.10;2.13;;;20.10;99.70;;;;;;4209290;28;20975;-76
2022/05/09 05:47:40;;;;;;;6.88;2.20;;;20.10;99.70;;;;;;4208990;28;20287;-76
2022/05/09 05:49:43;;;;;;;4.45;2.30;;;20.10;99.70;;;;;;4209270;28;20264;-76
2022/05/09 05:51:45;;;;;;;5.82;2.65;;;20.10;99.80;;;;;;4207727;28;20226;-76
2022/05/09 05:53:48;;;;;;;4.45;2.10;;;20.10;99.70;;;;;;4208024;28;20218;-76
2022/05/09 05:55:52;;;;;;;4.03;2.30;;;20.10;99.70;;;;;;4209167;28;20222;-76
2022/05/09 05:57:54;;;;;;;5.05;2.22;;;20.20;99.70;;;;;;4209216;28;20222;-76
2022/05/09 05:59:58;;;;;;;5.68;2.00;;;20.20;99.70;;;;;;4208714;28;20226;-76
2022/05/09 06:02:01;;;;;;;4.45;2.22;;;20.20;99.80;;;;;;4208551;28;20292;-76
2022/05/09 06:04:05;;;;;;;6.63;2.42;;;20.20;99.70;;;;;;4208848;28;20275;-76
2022/05/09 06:06:07;;;;;;;6.50;2.30;;;20.10;99.60;;;;;;4209463;28;20279;-76
2022/05/09 06:08:10;;;;;;;3.92;2.10;;;20.20;99.70;;;;;;4208674;28;20253;-76
2022/05/09 06:10:15;;;;;;;3.55;2.15;;;20.20;99.70;;;;;;4209301;28;20222;-82
2022/05/09 06:12:19;;;;;;;3.83;1.88;;;20.20;99.90;;;;;;4209325;28;20233;-82
2022/05/09 06:14:21;;;;;;;5.50;2.38;;;20.20;99.70;;;;;;4210536;28;20226;-83
2022/05/09 06:16:25;;;;;;;4.72;2.10;;;20.20;99.90;;;;;;4211249;28;20275;-83
2022/05/09 06:18:27;;;;;;;4.47;2.00;;;20.20;99.70;;;;;;4210901;28;20222;-82
2022/05/09 06:20:33;;;;;;;4.63;2.35;;;20.20;99.80;;;;;;4211020;28;20223;-82
2022/05/09 06:22:36;;;;;;;6.32;2.70;;;20.20;99.70;;;;;;4210891;28;20238;-82
2022/05/09 06:24:39;;;;;;;5.55;2.38;;;20.20;99.80;;;;;;4211185;28;20720;-82
2022/05/09 06:26:42;;;;;;;3.47;2.13;;;20.20;99.70;;;;;;4210889;28;20219;-82
2022/05/09 06:28:44;;;;;;;5.45;2.20;;;20.20;99.70;;;;;;4209028;28;20618;-82
2022/05/09 06:30:46;;;;;;;3.65;2.03;;;20.20;99.80;;;;;;4208647;28;20206;-83
2022/05/09 06:32:49;;;;;;;5.05;2.40;;;20.20;99.80;;;;;;4210278;28;20210;-82
2022/05/09 06:34:51;;;;;;;6.00;2.35;;;20.20;99.80;;;;;;4208240;28;20538;-83
2022/05/09 06:36:55;;;;;;;3.45;2.00;;;20.20;99.90;;;;;;4211064;28;20222;-82
2022/05/09 06:38:57;;;;;;;4.47;2.08;;;20.20;99.80;;;;;;4209904;28;20691;-82
2022/05/09 06:41:01;;;;;;;5.47;2.17;;;20.20;99.90;;;;;;4208433;28;20280;-82
2022/05/09 06:43:06;;;;;;;10.93;2.90;;;20.30;99.80;;;;;;4208449;28;20842;-81
2022/05/09 06:45:09;;;;;;;5.45;3.58;;;20.10;98.70;;;;;;4209272;28;20271;-85
2022/05/09 06:47:13;;;;;;;9.27;2.80;;;20.20;98.00;;;;;;4210275;28;20279;-82
2022/05/09 06:49:15;;;;;;;5.15;3.28;;;20.00;98.60;;;;;;4210524;28;20222;-83
2022/05/09 06:51:18;;;;;;;7.07;3.30;;;20.00;97.30;;;;;;4204270;28;20259;-82
2022/05/09 06:53:22;;;;;;;6.65;3.40;;;20.00;97.80;;;;;;4207123;28;20260;-83
2022/05/09 06:55:24;;;;;;;18.92;3.80;;;20.00;97.50;;;;;;4209119;28;20652;-87
2022/05/09 06:57:27;;;;;;;15.23;4.32;;;20.00;98.70;;;;;;4207450;28;20663;-84
2022/05/09 06:59:32;;;;;;;12.63;4.43;;;20.00;99.90;;;;;;4208636;28;20226;-85
2022/05/09 07:01:35;;;;;;;15.35;4.82;;;19.80;99.90;;;;;;4206604;28;20738;-83
2022/05/09 07:03:37;;;;;;;12.55;4.53;;;19.60;99.90;;;;;;4206970;28;20214;-84
2022/05/09 07:05:43;;;;;;;14.80;5.07;;;19.50;99.90;;;;;;4203760;28;20291;-80
2022/05/09 07:07:48;;;;;;;15.27;5.22;;;19.50;99.90;;;;;;4209164;28;20260;-83
2022/05/09 07:09:51;;;;;;;9.30;4.80;;;19.60;99.90;;;;;;4210216;28;20889;-81
2022/05/09 07:11:54;;;;;;;11.85;4.40;;;19.60;99.90;;;;;;4209818;28;20269;-79
2022/05/09 07:13:57;;;;;;;11.93;4.70;;;19.50;99.90;;;;;;4209633;28;20317;-81
2022/05/09 07:15:59;;;;;;;10.85;4.75;;;19.40;99.90;;;;;;4208804;28;20308;-81
2022/05/09 07:18:03;;;;;;;7.38;4.25;;;19.40;99.90;;;;;;4210191;28;20240;-81
2022/05/09 07:20:07;;;;;;;10.13;4.55;;;19.40;99.90;;;;;;4209880;28;20230;-84
2022/05/09 07:22:13;;;;;;;12.38;4.47;;;19.30;99.90;;;;;;4208498;28;20242;-86
2022/05/09 07:24:15;;;;;;;9.23;4.15;;;19.20;99.90;;;;;;4205512;28;20251;-83
2022/05/09 07:26:19;;;;;;;9.68;4.13;;;19.20;99.90;;;;;;4208284;28;20244;-82
2022/05/09 07:28:21;;;;;;;10.48;4.43;;;19.30;99.90;;;;;;4204713;28;20210;-85
2022/05/09 07:30:24;;;;;;;11.15;4.32;;;19.20;99.90;;;;;;4202105;28;20211;-86
2022/05/09 07:32:26;;;;;;;8.63;4.32;;;19.20;99.90;;;;;;4207274;28;20210;-84
2022/05/09 07:34:28;;;;;;;10.80;4.30;;;19.30;99.90;;;;;;4206418;28;20282;-85
2022/05/09 07:36:31;;;;;;;11.00;3.92;;;19.30;99.90;;;;;;4207365;28;20826;-85
2022/05/09 07:38:33;;;;;;;9.73;4.15;;;19.30;99.90;;;;;;4210030;28;20218;-83
2022/05/09 07:40:36;;;;;;;14.23;4.40;;;19.30;99.90;;;;;;4207140;28;20248;-81
2022/05/09 07:42:42;;;;;;;13.20;4.57;;;19.30;99.80;;;;;;4207311;28;20291;-81
2022/05/09 07:44:44;;;;;;;10.68;4.40;;;19.50;99.80;;;;;;4209411;28;20210;-79
2022/05/09 07:46:47;;;;;;;13.35;4.25;;;19.50;99.60;;;;;;4200080;28;20223;-82
2022/05/09 07:48:49;;;;;;;8.55;4.40;;;19.50;99.00;;;;;;4209714;28;20210;-81
2022/05/09 07:50:53;;;;;;;12.15;4.25;;;19.60;99.00;;;;;;4208787;28;20267;-85
2022/05/09 07:52:55;;;;;;;9.93;3.75;;;19.60;99.00;;;;;;4208395;28;20202;-86
2022/05/09 07:54:58;;;;;;;12.55;4.43;;;19.80;98.70;;;;;;4204696;28;20210;-84
2022/05/09 07:57:00;;;;;;;10.00;3.78;;;19.80;98.60;;;;;;4192957;28;20284;-78
2022/05/09 07:59:04;;;;;;;8.88;3.92;;;19.80;99.10;;;;;;4203538;28;20248;-82
2022/05/09 08:01:07;;;;;;;12.55;4.30;;;19.90;98.80;;;;;;4206278;28;20588;-77
2022/05/09 08:03:17;;;;;;;7.65;3.45;;;20.00;98.50;;;;;;4204520;28;20238;-77
2022/05/09 08:05:19;;;;;;;8.50;2.92;;;20.10;98.20;;;;;;4205036;28;20241;-74
2022/05/09 08:07:21;;;;;;;7.97;3.25;;;20.10;97.90;;;;;;4203151;28;20214;-75
2022/05/09 08:09:24;;;;;;;8.90;3.35;;;20.10;97.80;;;;;;4206849;28;20731;-82
2022/05/09 08:11:26;;;;;;;9.50;3.50;;;20.20;98.20;;;;;;4206707;28;20945;-76
2022/05/09 08:13:32;;;;;;;9.38;2.92;;;20.30;97.40;;;;;;4206111;28;20288;-79
2022/05/09 08:15:37;;;;;;;5.55;2.88;;;20.20;97.00;;;;;;4205940;28;20283;-78
2022/05/09 08:17:39;;;;;;;10.70;3.28;;;20.30;96.80;;;;;;4207893;28;20264;-78
2022/05/09 08:19:43;;;;;;;9.57;2.90;;;20.30;96.70;;;;;;4208211;28;20214;-75
2022/05/09 08:21:47;;;;;;;7.07;2.90;;;20.30;96.70;;;;;;4207196;28;20242;-76
2022/05/09 08:23:51;;;;;;;7.20;2.90;;;20.40;96.60;;;;;;4201381;28;20223;-78
2022/05/09 08:25:55;;;;;;;7.38;2.55;;;20.50;96.40;;;;;;4205369;28;20218;-77
2022/05/09 08:27:58;;;;;;;7.38;2.70;;;20.50;96.20;;;;;;4207053;28;20218;-78
2022/05/09 08:30:01;;;;;;;13.73;3.28;;;20.50;96.00;;;;;;4206286;28;20317;-75
2022/05/09 08:32:06;;;;;;;7.38;2.65;;;20.50;96.00;;;;;;4199237;28;20269;-76
2022/05/09 08:34:09;;;;;;;6.28;2.65;;;20.60;96.00;;;;;;4202718;28;20303;-76
2022/05/09 08:36:11;;;;;;;8.25;2.90;;;20.60;96.00;;;;;;4200522;28;20236;-76
2022/05/09 08:38:14;;;;;;;11.23;2.80;;;20.60;96.00;;;;;;4201950;28;20218;-73
2022/05/09 08:40:20;;;;;;;4.63;2.50;;;20.50;96.00;;;;;;4207514;28;20244;-75
2022/05/09 08:42:26;;;;;;;9.52;2.85;;;20.50;96.60;;;;;;4199720;28;20238;-78
2022/05/09 08:45:02;;;;;;;8.10;2.80;;;20.60;96.10;;;;;;4207873;28;20678;-76
2022/05/09 08:47:41;;;;;;;7.53;2.63;;;20.60;96.30;;;;;;4207590;28;20658;-76
2022/05/09 08:49:52;;;;;;;8.82;2.47;;;20.70;96.30;;;;;;4204404;28;20581;-76
2022/05/09 08:52:02;;;;;;;4.00;2.05;;;20.70;95.90;;;;;;4200829;28;20271;-75
2022/05/09 08:54:09;;;;;;;11.40;2.17;;;20.60;95.70;;;;;;4197849;28;20214;-78
2022/05/09 08:56:17;;;;;;;8.02;2.17;;;20.60;95.00;;;;;;4205705;28;20218;-77
2022/05/09 08:58:33;;;;;;;6.93;2.10;;;20.70;95.20;;;;;;4203763;28;20221;-79
2022/05/09 09:00:38;;;;;;;7.95;2.00;;;20.70;95.20;;;;;;4202611;28;21540;-82
2022/05/09 09:02:47;;;;;;;3.63;1.92;;;20.70;95.10;;;;;;4206010;28;20243;-80
2022/05/09 09:04:54;;;;;;;4.97;1.85;;;20.80;95.10;;;;;;4204759;28;20260;-80
2022/05/09 09:07:12;;;;;;;5.28;2.03;;;20.80;95.00;;;;;;4201376;28;20441;-79
2022/05/09 09:09:37;;;;;;;4.30;1.90;;;20.80;95.20;;;;;;4206154;28;20256;-81
2022/05/09 09:11:50;;;;;;;4.95;1.83;;;20.80;95.30;;;;;;4204696;28;20280;-79
2022/05/09 09:14:06;;;;;;;8.43;2.00;;;20.80;95.30;;;;;;4205630;28;20230;-78
2022/05/09 09:16:22;;;;;;;4.63;2.00;;;20.90;95.50;;;;;;4194688;28;20283;-78
2022/05/09 09:18:36;;;;;;;8.18;1.90;;;20.90;95.30;;;;;;4203590;28;20934;-79
2022/05/09 09:20:59;;;;;;;6.60;2.10;;;20.90;95.20;;;;;;4205162;28;20248;-79
2022/05/09 09:23:24;;;;;;;4.72;2.00;;;20.90;95.50;;;;;;4204783;28;20856;-79
2022/05/09 09:25:35;;;;;;;7.72;2.22;;;21.00;95.00;;;;;;4204953;28;20226;-79
2022/05/09 09:27:43;;;;;;;4.60;1.70;;;20.90;95.40;;;;;;4207862;28;20679;-81
2022/05/09 09:29:50;;;;;;;3.70;1.70;;;20.90;94.80;;;;;;4205110;28;20263;-79
2022/05/09 09:31:59;;;;;;;6.40;2.03;;;21.00;95.00;;;;;;4204796;28;20268;-80
2022/05/09 09:34:10;;;;;;;6.70;1.70;;;20.90;94.50;;;;;;4201817;28;20214;-78
2022/05/09 09:36:17;;;;;;;5.65;1.80;;;20.90;94.30;;;;;;4201935;28;20705;-83
2022/05/09 09:38:34;;;;;;;4.53;1.65;;;21.00;95.00;;;;;;4207237;28;20264;-78
2022/05/09 09:40:38;;;;;;;4.13;1.45;;;21.00;94.50;;;;;;4202800;28;20715;-77
2022/05/09 09:42:40;;;;;;;5.00;1.58;;;21.10;94.70;;;;;;4202054;28;20299;-79
2022/05/09 09:44:46;;;;;;;3.92;1.90;;;21.10;94.90;;;;;;4204659;28;20214;-75
2022/05/09 09:47:09;;;;;;;5.15;1.90;;;21.10;94.90;;;;;;4204013;28;20603;-81
2022/05/09 09:49:19;;;;;;;8.63;1.92;;;21.10;94.30;;;;;;4204251;28;20226;-78
2022/05/09 09:51:22;;;;;;;5.65;1.83;;;21.20;94.30;;;;;;4202578;28;20628;-75
2022/05/09 09:53:41;;;;;;;2.83;1.40;;;21.20;94.20;;;;;;4203644;28;20264;-80
2022/05/09 09:56:01;;;;;;;5.97;1.90;;;21.20;94.40;;;;;;4205835;28;20218;-77
2022/05/09 09:58:20;;;;;;;5.63;1.55;;;21.10;94.70;;;;;;4198453;28;20666;-76
2022/05/09 10:00:26;;;;;;;6.22;1.95;;;21.20;95.10;;;;;;4201777;28;20226;-80
2022/05/09 10:02:30;;;;;;;8.55;2.00;;;21.10;95.10;;;;;;4203882;28;20598;-77
2022/05/09 10:04:34;;;;;;;5.05;1.90;;;21.10;94.50;;;;;;4207176;28;20218;-76
2022/05/09 10:06:55;;;;;;;3.70;1.50;;;21.20;94.80;;;;;;4203951;28;20271;-78
2022/05/09 10:08:59;;;;;;;6.97;2.15;;;21.30;94.40;;;;;;4204515;28;20263;-77
2022/05/09 10:11:05;;;;;;;3.28;1.50;;;21.30;93.50;;;;;;4206582;28;20230;-79
2022/05/09 10:13:21;;;;;;;3.85;1.60;;;21.30;93.60;;;;;;4201642;28;20222;-77
2022/05/09 10:15:28;;;;;;;7.93;1.90;;;21.40;94.00;;;;;;4201953;28;20242;-76
2022/05/09 10:17:33;;;;;;;9.02;2.03;;;21.30;95.10;;;;;;4201070;28;20210;-76
2022/05/09 10:19:37;;;;;;;4.82;1.67;;;21.30;95.10;;;;;;4203347;28;20222;-76
2022/05/09 10:26:24;;;;;;;8.43;1.70;;;21.20;93.90;;;;;;4202065;28;20210;-76
2022/05/09 10:28:31;;;;;;;4.07;1.60;;;21.20;94.10;;;;;;4202850;28;20215;-76
2022/05/09 10:30:37;;;;;;;4.45;1.80;;;21.20;94.20;;;;;;4199760;28;20272;-76
2022/05/09 10:32:48;;;;;;;9.85;2.40;;;21.10;93.90;;;;;;4202051;28;20223;-76
2022/05/09 10:34:59;;;;;;;5.93;1.92;;;21.10;93.70;;;;;;4208971;28;20214;-76
2022/05/09 10:37:06;;;;;;;4.70;1.73;;;21.10;93.70;;;;;;4206429;28;20229;-76
2022/05/09 10:39:14;;;;;;;5.15;2.15;;;21.00;93.50;;;;;;4206914;28;20248;-76
2022/05/09 10:41:26;;;;;;;6.13;1.80;;;20.90;93.50;;;;;;4208196;28;20267;-76
2022/05/09 10:43:32;;;;;;;6.05;1.70;;;20.90;93.50;;;;;;4207624;28;20287;-77
2022/05/09 10:45:44;;;;;;;7.75;1.80;;;21.00;93.30;;;;;;4204823;28;20277;-76
2022/05/09 10:47:53;;;;;;;5.93;1.92;;;21.00;93.50;;;;;;4204463;28;20263;-76
2022/05/09 10:50:03;;;;;;;3.03;1.52;;;21.10;93.40;;;;;;4207970;28;20236;-76
2022/05/09 10:52:16;;;;;;;5.82;1.77;;;21.10;93.40;;;;;;4208574;28;20218;-76
2022/05/09 10:54:26;;;;;;;3.08;1.60;;;21.10;93.20;;;;;;4203853;28;20210;-76
2022/05/09 10:56:32;;;;;;;4.45;1.85;;;21.20;93.50;;;;;;4207790;28;20281;-76
2022/05/09 10:58:44;;;;;;;3.65;1.50;;;21.20;93.40;;;;;;4204786;28;20267;-77
2022/05/09 11:00:52;;;;;;;5.18;1.60;;;21.30;93.40;;;;;;4204759;28;20263;-77
2022/05/09 11:03:04;;;;;;;3.85;1.58;;;21.20;93.70;;;;;;4205313;28;20218;-76